createdAt,value
2018-06-15T00:00:09.231Z,10.47
2018-06-15T00:02:37.819Z,10.20
2018-06-15T00:05:06.231Z,9.73
2018-06-15T00:07:34.525Z,9.20
2018-06-15T00:10:02.844Z,10.50
2018-06-15T00:12:31.165Z,10.70
2018-06-15T00:14:59.479Z,9.30
2018-06-15T00:17:27.797Z,9.30
2018-06-15T00:19:56.132Z,10.07
2018-06-15T00:22:24.441Z,10.30
2018-06-15T00:24:52.793Z,10.33
2018-06-15T00:27:21.141Z,10.10
2018-06-15T00:29:49.452Z,10.10
2018-06-15T00:32:17.747Z,9.80
2018-06-15T00:34:46.066Z,9.70
2018-06-15T00:37:14.347Z,8.87
2018-06-15T00:39:42.692Z,9.13
2018-06-15T00:42:11.020Z,10.10
2018-06-15T00:44:39.297Z,10.13
2018-06-15T00:47:07.626Z,10.20
2018-06-15T00:49:36.806Z,9.03
2018-06-15T00:52:05.131Z,9.90
2018-06-15T00:54:33.428Z,8.23
2018-06-15T00:57:13.072Z,9.50
2018-06-15T00:59:41.484Z,9.27
2018-06-15T01:02:09.812Z,9.33
2018-06-15T01:04:38.125Z,10.00
2018-06-15T01:07:06.424Z,9.80
2018-06-15T01:09:34.749Z,9.67
2018-06-15T01:12:03.066Z,9.43
2018-06-15T01:14:31.365Z,9.33
2018-06-15T01:16:59.653Z,8.50
2018-06-15T01:19:27.975Z,8.30
2018-06-15T01:21:56.300Z,8.23
2018-06-15T01:24:25.137Z,8.40
2018-06-15T01:26:53.438Z,8.30
2018-06-15T01:29:22.239Z,9.00
2018-06-15T01:31:50.517Z,9.07
2018-06-15T01:34:18.807Z,9.27
2018-06-15T01:36:47.101Z,9.77
2018-06-15T01:39:15.417Z,9.00
2018-06-15T01:41:44.159Z,8.90
2018-06-15T01:44:12.457Z,8.50
2018-06-15T01:46:40.780Z,9.07
2018-06-15T01:49:09.109Z,8.70
2018-06-15T01:51:37.463Z,10.40
2018-06-15T01:54:05.794Z,10.83
2018-06-15T01:56:34.112Z,10.53
2018-06-15T01:59:02.430Z,9.77
2018-06-15T02:01:30.775Z,9.37
2018-06-15T02:03:59.058Z,10.40
2018-06-15T02:06:27.352Z,9.93
2018-06-15T02:08:55.647Z,10.40
2018-06-15T02:11:25.078Z,10.60
2018-06-15T02:13:53.397Z,10.63
2018-06-15T02:16:21.716Z,10.83
2018-06-15T02:18:50.054Z,10.70
2018-06-15T02:21:18.358Z,10.30
2018-06-15T02:23:46.683Z,11.50
2018-06-15T02:26:15.002Z,9.33
2018-06-15T02:28:43.333Z,9.83
2018-06-15T02:31:11.730Z,10.53
2018-06-15T02:33:40.055Z,10.23
2018-06-15T02:36:08.361Z,10.20
2018-06-15T02:38:36.680Z,10.87
2018-06-15T02:41:05.054Z,10.67
2018-06-15T02:43:33.372Z,11.60
2018-06-15T02:46:01.695Z,9.97
2018-06-15T02:48:30.026Z,10.43
2018-06-15T02:50:58.336Z,11.17
2018-06-15T02:53:26.715Z,10.17
2018-06-15T02:55:55.064Z,10.00
2018-06-15T02:58:23.334Z,11.10
2018-06-15T03:00:52.453Z,10.07
2018-06-15T03:03:20.846Z,11.27
2018-06-15T03:05:49.149Z,10.27
2018-06-15T03:08:17.463Z,11.50
2018-06-15T03:10:45.819Z,10.97
2018-06-15T03:13:14.143Z,11.20
2018-06-15T03:15:42.495Z,11.67
2018-06-15T03:18:10.898Z,11.87
2018-06-15T03:20:39.200Z,13.27
2018-06-15T03:23:07.486Z,11.03
2018-06-15T03:25:35.822Z,11.37
2018-06-15T03:28:04.128Z,11.43
2018-06-15T03:30:32.425Z,10.90
2018-06-15T03:33:00.767Z,12.97
2018-06-15T03:35:29.095Z,11.83
2018-06-15T03:37:57.479Z,12.20
2018-06-15T03:40:25.842Z,11.77
2018-06-15T03:42:54.190Z,12.60
2018-06-15T03:45:22.236Z,11.47
2018-06-15T03:47:50.525Z,13.00
2018-06-15T03:50:18.862Z,12.90
2018-06-15T03:52:47.143Z,12.47
2018-06-15T03:55:15.446Z,11.87
2018-06-15T03:57:43.751Z,11.70
2018-06-15T04:00:12.058Z,11.80
2018-06-15T04:02:40.422Z,11.90
2018-06-15T04:05:08.766Z,11.97
2018-06-15T04:07:37.223Z,11.43
2018-06-15T04:10:05.463Z,11.90
2018-06-15T04:12:33.771Z,11.30
2018-06-15T04:15:02.073Z,12.07
2018-06-15T04:17:30.409Z,12.67
2018-06-15T04:19:58.688Z,12.40
2018-06-15T04:22:27.029Z,11.50
2018-06-15T04:24:55.335Z,13.20
2018-06-15T04:27:23.662Z,11.70
2018-06-15T04:29:51.958Z,11.67
2018-06-15T04:32:20.308Z,11.17
2018-06-15T04:34:48.630Z,10.83
2018-06-15T04:37:16.939Z,11.37
2018-06-15T04:39:45.290Z,12.50
2018-06-15T04:42:13.597Z,10.23
2018-06-15T04:44:41.916Z,10.60
2018-06-15T04:47:10.315Z,11.77
2018-06-15T04:49:39.142Z,10.83
2018-06-15T04:52:07.484Z,9.53
2018-06-15T04:54:35.809Z,11.03
2018-06-15T04:57:04.113Z,10.17
2018-06-15T04:59:32.434Z,11.20
2018-06-15T05:02:00.930Z,10.53
2018-06-15T05:04:29.233Z,12.13
2018-06-15T05:06:57.549Z,13.20
2018-06-15T05:09:25.915Z,12.13
2018-06-15T05:11:54.238Z,10.50
2018-06-15T05:14:22.570Z,9.83
2018-06-15T05:16:51.010Z,9.63
2018-06-15T05:19:19.358Z,10.70
2018-06-15T05:21:47.677Z,10.60
2018-06-15T05:24:16.022Z,9.50
2018-06-15T05:26:44.357Z,9.80
2018-06-15T05:29:12.687Z,9.93
2018-06-15T05:31:41.033Z,11.00
2018-06-15T05:34:09.343Z,10.33
2018-06-15T05:36:37.669Z,10.70
2018-06-15T05:39:08.363Z,10.90
2018-06-15T05:41:36.734Z,9.80
2018-06-15T05:44:05.063Z,11.60
2018-06-15T05:46:33.366Z,10.87
2018-06-15T05:49:01.679Z,11.33
2018-06-15T05:51:29.997Z,12.70
2018-06-15T05:53:58.326Z,12.93
2018-06-15T05:56:26.629Z,12.30
2018-06-15T05:58:54.941Z,13.17
2018-06-15T06:01:23.274Z,13.27
2018-06-15T06:03:51.701Z,11.37
2018-06-15T06:06:19.969Z,12.07
2018-06-15T06:08:48.272Z,12.10
2018-06-15T06:11:16.592Z,11.50
2018-06-15T06:13:44.930Z,11.33
2018-06-15T06:16:13.312Z,12.00
2018-06-15T06:18:41.667Z,12.07
2018-06-15T06:21:10.034Z,11.63
2018-06-15T06:23:38.381Z,10.83
2018-06-15T06:26:06.712Z,11.93
2018-06-15T06:28:35.089Z,11.33
2018-06-15T06:31:03.448Z,10.70
2018-06-15T06:33:31.738Z,10.50
2018-06-15T06:36:00.086Z,11.73
2018-06-15T06:38:28.436Z,11.10
2018-06-15T06:40:56.775Z,11.33
2018-06-15T06:43:25.119Z,12.03
2018-06-15T06:45:53.413Z,12.60
2018-06-15T06:48:21.716Z,11.70
2018-06-15T06:50:50.077Z,11.60
2018-06-15T06:53:18.386Z,11.17
2018-06-15T06:55:46.728Z,11.83
2018-06-15T06:58:15.072Z,11.40
2018-06-15T07:00:43.385Z,9.63
2018-06-15T07:03:11.704Z,10.30
2018-06-15T07:05:40.017Z,11.53
2018-06-15T07:08:08.317Z,12.03
2018-06-15T07:10:36.626Z,11.83
2018-06-15T07:13:04.958Z,11.67
2018-06-15T07:15:33.270Z,12.80
2018-06-15T07:18:01.590Z,10.90
2018-06-15T07:20:29.947Z,11.63
2018-06-15T07:22:58.271Z,10.43
2018-06-15T07:25:26.585Z,11.63
2018-06-15T07:27:54.948Z,10.70
2018-06-15T07:30:23.281Z,11.10
2018-06-15T07:32:51.607Z,11.60
2018-06-15T07:35:19.937Z,10.57
2018-06-15T07:37:47.984Z,12.33
2018-06-15T07:40:16.428Z,11.07
2018-06-15T07:42:44.738Z,11.10
2018-06-15T07:45:13.063Z,11.50
2018-06-15T07:47:41.369Z,11.40
2018-06-15T07:50:09.746Z,11.23
2018-06-15T07:52:38.103Z,12.43
2018-06-15T07:55:06.422Z,10.37
2018-06-15T07:57:34.764Z,9.40
2018-06-15T08:00:03.109Z,9.83
2018-06-15T08:02:31.440Z,10.03
2018-06-15T08:04:59.769Z,10.07
2018-06-15T08:07:28.113Z,8.77
2018-06-15T08:09:56.410Z,10.57
2018-06-15T08:12:24.809Z,9.80
2018-06-15T08:14:53.118Z,9.40
2018-06-15T08:17:21.434Z,10.40
2018-06-15T08:19:49.775Z,9.80
2018-06-15T08:22:18.130Z,9.13
2018-06-15T08:24:46.465Z,9.10
2018-06-15T08:27:14.815Z,10.20
2018-06-15T08:29:43.282Z,10.23
2018-06-15T08:32:11.624Z,11.03
2018-06-15T08:34:39.965Z,11.70
2018-06-15T08:37:08.296Z,10.93
2018-06-15T08:39:36.685Z,11.47
2018-06-15T08:42:05.063Z,11.40
2018-06-15T08:44:33.366Z,11.73
2018-06-15T08:47:01.715Z,12.20
2018-06-15T08:49:30.109Z,11.97
2018-06-15T08:51:58.426Z,12.53
2018-06-15T08:54:26.795Z,11.70
2018-06-15T08:56:55.165Z,13.37
2018-06-15T08:59:23.507Z,12.67
2018-06-15T09:01:51.951Z,12.73
2018-06-15T09:04:20.256Z,13.00
2018-06-15T09:06:48.537Z,13.23
2018-06-15T09:09:16.914Z,13.03
2018-06-15T09:11:45.265Z,12.30
2018-06-15T09:14:13.570Z,14.43
2018-06-15T09:16:41.883Z,12.93
2018-06-15T09:19:10.305Z,12.23
2018-06-15T09:21:38.681Z,11.53
2018-06-15T09:24:07.071Z,11.93
2018-06-15T09:26:35.451Z,11.23
2018-06-15T09:29:03.818Z,11.37
2018-06-15T09:31:32.156Z,10.60
2018-06-15T09:34:00.529Z,10.60
2018-06-15T09:36:28.861Z,10.93
2018-06-15T09:38:57.274Z,10.90
2018-06-15T09:41:25.586Z,10.30
2018-06-15T09:43:54.074Z,10.70
2018-06-15T09:46:22.433Z,12.30
2018-06-15T09:48:50.728Z,10.10
2018-06-15T09:51:19.076Z,9.40
2018-06-15T09:53:47.489Z,9.30
2018-06-15T09:56:15.919Z,10.00
2018-06-15T09:58:44.257Z,9.33
2018-06-15T10:01:12.592Z,9.50
2018-06-15T10:03:41.138Z,9.40
2018-06-15T10:06:09.492Z,10.23
2018-06-15T10:08:37.786Z,9.07
2018-06-15T10:11:06.605Z,8.30
2018-06-15T10:13:34.962Z,9.50
2018-06-15T10:16:03.364Z,9.00
2018-06-15T10:18:31.699Z,8.50
2018-06-15T10:21:00.007Z,8.90
2018-06-15T10:23:28.353Z,8.60
2018-06-15T10:25:56.765Z,9.13
2018-06-15T10:28:25.125Z,8.83
2018-06-15T10:30:53.653Z,7.90
2018-06-15T10:33:22.093Z,9.77
2018-06-15T10:35:50.510Z,9.63
2018-06-15T10:38:18.854Z,10.13
2018-06-15T10:40:47.407Z,9.57
2018-06-15T10:43:15.740Z,9.87
2018-06-15T10:45:44.141Z,8.03
2018-06-15T10:48:12.926Z,8.17
2018-06-15T10:50:41.691Z,8.60
2018-06-15T10:53:10.236Z,7.70
2018-06-15T10:55:38.600Z,8.23
2018-06-15T10:58:07.348Z,7.70
2018-06-15T11:00:35.673Z,9.70
2018-06-15T11:03:04.703Z,9.20
2018-06-15T11:05:33.026Z,9.00
2018-06-15T11:08:01.098Z,9.27
2018-06-15T11:10:29.404Z,8.30
2018-06-15T11:12:57.768Z,8.73
2018-06-15T11:15:26.106Z,8.97
2018-06-15T11:17:54.475Z,8.40
2018-06-15T11:20:22.801Z,7.90
2018-06-15T11:22:51.133Z,6.83
2018-06-15T11:25:19.541Z,8.80
2018-06-15T11:27:47.889Z,8.20
2018-06-15T11:30:16.217Z,8.10
2018-06-15T11:32:44.590Z,8.10
2018-06-15T11:35:12.950Z,7.83
2018-06-15T11:37:41.028Z,7.37
2018-06-15T11:40:09.081Z,7.97
2018-06-15T11:42:37.429Z,7.03
2018-06-15T11:45:05.793Z,6.97
2018-06-15T11:47:34.361Z,7.50
2018-06-15T11:50:02.722Z,7.20
2018-06-15T11:52:35.831Z,8.30
2018-06-15T11:55:04.220Z,6.73
2018-06-15T11:57:32.569Z,8.00
2018-06-15T12:00:00.900Z,8.40
2018-06-15T12:02:29.251Z,7.50
2018-06-15T12:04:57.602Z,7.40
2018-06-15T12:07:25.956Z,8.40
2018-06-15T12:09:54.327Z,7.57
2018-06-15T12:12:22.649Z,8.00
2018-06-15T12:14:51.000Z,7.80
2018-06-15T12:17:19.087Z,7.63
2018-06-15T12:19:47.372Z,7.87
2018-06-15T12:22:15.724Z,7.77
2018-06-15T12:24:44.143Z,7.63
2018-06-15T12:27:12.515Z,7.03
2018-06-15T12:29:40.877Z,7.03
2018-06-15T12:32:09.224Z,7.27
2018-06-15T12:34:37.606Z,6.70
2018-06-15T12:37:05.961Z,6.67
2018-06-15T12:39:34.300Z,6.87
2018-06-15T12:42:02.644Z,6.67
2018-06-15T12:44:31.021Z,6.20
2018-06-15T12:46:59.385Z,6.87
2018-06-15T12:49:27.803Z,6.20
2018-06-15T12:51:56.215Z,7.33
2018-06-15T12:54:24.530Z,7.20
2018-06-15T12:56:52.871Z,6.37
2018-06-15T12:59:21.305Z,6.03
2018-06-15T13:01:49.647Z,6.90
2018-06-15T13:04:17.995Z,5.90
2018-06-15T13:06:46.407Z,6.30
2018-06-15T13:09:14.767Z,5.50
2018-06-15T13:11:43.121Z,5.63
2018-06-15T13:14:11.622Z,6.30
2018-06-15T13:16:40.012Z,6.10
2018-06-15T13:19:08.337Z,6.07
2018-06-15T13:21:36.695Z,4.93
2018-06-15T13:24:05.043Z,4.97
2018-06-15T13:26:33.422Z,4.67
2018-06-15T13:29:01.774Z,5.53
2018-06-15T13:31:30.121Z,4.80
2018-06-15T13:33:58.185Z,5.13
2018-06-15T13:36:26.545Z,5.50
2018-06-15T13:38:54.876Z,5.47
2018-06-15T13:41:23.170Z,4.70
2018-06-15T13:43:51.910Z,5.00
2018-06-15T13:46:20.237Z,5.70
2018-06-15T13:48:48.665Z,5.23
2018-06-15T13:51:17.074Z,4.87
2018-06-15T13:53:45.418Z,5.30
2018-06-15T13:56:13.753Z,5.03
2018-06-15T13:58:42.117Z,4.73
2018-06-15T14:01:10.471Z,5.70
2018-06-15T14:03:38.806Z,5.27
2018-06-15T14:06:07.141Z,4.60
2018-06-15T14:08:35.464Z,4.23
2018-06-15T14:11:03.800Z,4.90
2018-06-15T14:13:32.124Z,4.73
2018-06-15T14:16:00.497Z,4.90
2018-06-15T14:18:28.867Z,4.43
2018-06-15T14:20:57.235Z,3.73
2018-06-15T14:23:25.566Z,4.43
2018-06-15T14:25:53.899Z,4.40
2018-06-15T14:28:22.281Z,3.60
2018-06-15T14:30:50.626Z,2.93
2018-06-15T14:33:18.972Z,3.17
2018-06-15T14:35:47.616Z,3.43
2018-06-15T14:38:15.964Z,3.43
2018-06-15T14:40:44.340Z,3.43
2018-06-15T14:43:12.390Z,3.70
2018-06-15T14:45:40.734Z,3.37
2018-06-15T14:48:09.057Z,3.87
2018-06-15T14:50:37.402Z,3.20
2018-06-15T14:53:05.727Z,3.47
2018-06-15T14:55:34.065Z,3.30
2018-06-15T14:58:02.391Z,3.20
2018-06-15T15:00:30.747Z,3.00
2018-06-15T15:02:59.068Z,2.93
2018-06-15T15:05:27.412Z,2.90
2018-06-15T15:07:55.879Z,2.63
2018-06-15T15:10:24.181Z,2.53
2018-06-15T15:12:52.606Z,2.70
2018-06-15T15:15:20.979Z,2.40
2018-06-15T15:17:49.301Z,2.70
2018-06-15T15:20:17.612Z,2.57
2018-06-15T15:22:45.964Z,2.90
2018-06-15T15:25:14.281Z,3.23
2018-06-15T15:27:42.625Z,3.00
2018-06-15T15:30:11.003Z,3.30
2018-06-15T15:32:39.349Z,3.80
2018-06-15T15:35:07.704Z,4.20
2018-06-15T15:37:36.042Z,3.80
2018-06-15T15:40:04.573Z,3.60
2018-06-15T15:42:32.937Z,3.73
2018-06-15T15:45:01.301Z,3.80
2018-06-15T15:47:29.632Z,3.90
2018-06-15T15:49:58.004Z,4.30
2018-06-15T15:52:26.401Z,3.57
2018-06-15T15:54:54.720Z,3.97
2018-06-15T15:57:23.110Z,3.90
2018-06-15T15:59:51.489Z,3.63
2018-06-15T16:02:19.853Z,2.70
2018-06-15T16:04:48.249Z,2.93
2018-06-15T16:07:16.620Z,3.23
2018-06-15T16:09:45.013Z,3.00
2018-06-15T16:12:13.356Z,3.17
2018-06-15T16:14:41.749Z,2.93
2018-06-15T16:17:10.059Z,3.23
2018-06-15T16:19:38.409Z,3.10
2018-06-15T16:22:06.885Z,3.03
2018-06-15T16:24:35.198Z,3.90
2018-06-15T16:27:03.286Z,3.77
2018-06-15T16:29:31.372Z,3.83
2018-06-15T16:31:59.720Z,3.50
2018-06-15T16:34:28.176Z,2.83
2018-06-15T16:36:56.545Z,3.70
2018-06-15T16:39:24.910Z,4.37
2018-06-15T16:41:53.245Z,4.50
2018-06-15T16:44:21.573Z,4.70
2018-06-15T16:46:50.034Z,4.53
2018-06-15T16:49:18.414Z,4.90
2018-06-15T16:51:46.742Z,4.63
2018-06-15T16:54:15.109Z,4.97
2018-06-15T16:56:43.438Z,5.33
2018-06-15T16:59:11.806Z,5.07
2018-06-15T17:01:40.169Z,4.63
2018-06-15T17:04:08.661Z,4.50
2018-06-15T17:06:37.047Z,4.53
2018-06-15T17:09:07.353Z,5.20
2018-06-15T17:11:36.094Z,5.20
2018-06-15T17:14:04.493Z,5.40
2018-06-15T17:16:32.934Z,5.13
2018-06-15T17:19:01.304Z,6.00
2018-06-15T17:21:29.809Z,5.70
2018-06-15T17:23:58.201Z,5.43
2018-06-15T17:26:26.600Z,4.83
2018-06-15T17:28:55.010Z,5.00
2018-06-15T17:31:23.447Z,5.13
2018-06-15T17:33:51.931Z,4.80
2018-06-15T17:36:20.289Z,4.37
2018-06-15T17:38:48.969Z,4.40
2018-06-15T17:41:17.736Z,5.10
2018-06-15T17:43:46.145Z,4.63
2018-06-15T17:46:14.938Z,4.43
2018-06-15T17:48:43.459Z,4.60
2018-06-15T17:51:11.933Z,4.57
2018-06-15T17:53:42.147Z,4.73
2018-06-15T17:56:11.955Z,4.57
2018-06-15T17:58:40.491Z,4.53
2018-06-15T18:01:08.892Z,4.43
2018-06-15T18:03:37.254Z,4.53
2018-06-15T18:06:05.605Z,4.27
2018-06-15T18:08:33.946Z,4.13
2018-06-15T18:11:02.339Z,4.53
2018-06-15T18:13:30.399Z,4.37
2018-06-15T18:15:58.725Z,4.50
2018-06-15T18:18:27.111Z,4.27
2018-06-15T18:20:55.491Z,4.97
2018-06-15T18:23:23.902Z,3.90
2018-06-15T18:25:52.264Z,4.00
2018-06-15T18:28:20.585Z,4.70
2018-06-15T18:30:49.484Z,4.30
2018-06-15T18:33:17.877Z,4.40
2018-06-15T18:35:46.758Z,4.20
2018-06-15T18:38:15.128Z,4.00
2018-06-15T18:40:43.570Z,4.40
2018-06-15T18:43:11.965Z,3.70
2018-06-15T18:45:40.364Z,3.97
2018-06-15T18:48:08.737Z,3.63
2018-06-15T18:50:37.220Z,4.17
2018-06-15T18:53:05.718Z,4.43
2018-06-15T18:55:34.249Z,4.07
2018-06-15T18:58:02.744Z,3.70
2018-06-15T19:00:31.213Z,4.47
2018-06-15T19:02:59.656Z,4.80
2018-06-15T19:05:28.614Z,4.00
2018-06-15T19:07:57.130Z,5.10
2018-06-15T19:10:25.509Z,3.97
2018-06-15T19:12:54.264Z,4.40
2018-06-15T19:15:22.759Z,4.57
2018-06-15T19:17:51.555Z,4.50
2018-06-15T19:20:20.328Z,4.57
2018-06-15T19:22:48.950Z,4.20
2018-06-15T19:25:17.379Z,4.00
2018-06-15T19:27:45.755Z,3.80
2018-06-15T19:30:14.209Z,3.97
2018-06-15T19:32:42.576Z,4.07
2018-06-15T19:35:11.099Z,4.50
2018-06-15T19:37:40.108Z,4.20
2018-06-15T19:40:08.570Z,4.70
2018-06-15T19:42:36.972Z,4.77
2018-06-15T19:45:05.415Z,3.90
2018-06-15T19:47:33.795Z,4.20
2018-06-15T19:50:02.287Z,4.27
2018-06-15T19:52:30.753Z,4.53
2018-06-15T19:54:59.360Z,4.50
2018-06-15T19:57:28.275Z,4.27
2018-06-15T19:59:56.670Z,4.60
2018-06-15T20:02:25.127Z,4.53
2018-06-15T20:04:53.613Z,4.73
2018-06-15T20:07:22.172Z,4.43
2018-06-15T20:09:59.637Z,4.57
2018-06-15T20:12:29.058Z,4.07
2018-06-15T20:14:57.746Z,3.90
2018-06-15T20:17:26.238Z,5.67
2018-06-15T20:19:54.669Z,6.17
2018-06-15T20:22:23.081Z,4.70
2018-06-15T20:24:51.418Z,5.00
2018-06-15T20:27:19.818Z,4.67
2018-06-15T20:29:48.176Z,5.43
2018-06-15T20:32:16.533Z,5.17
2018-06-15T20:34:44.956Z,5.00
2018-06-15T20:37:13.279Z,5.10
2018-06-15T20:39:41.515Z,6.10
2018-06-15T20:42:09.893Z,4.83
2018-06-15T20:44:38.703Z,4.67
2018-06-15T20:47:07.305Z,4.87
2018-06-15T20:49:36.289Z,5.13
2018-06-15T20:52:04.592Z,5.70
2018-06-15T20:54:33.365Z,5.80
2018-06-15T20:57:01.810Z,5.50
2018-06-15T20:59:31.005Z,5.27
2018-06-15T21:01:59.375Z,5.60
2018-06-15T21:04:27.759Z,5.83
2018-06-15T21:06:56.077Z,5.97
2018-06-15T21:09:24.127Z,6.37
2018-06-15T21:11:52.488Z,6.50
2018-06-15T21:14:21.281Z,6.60
2018-06-15T21:16:49.690Z,7.70
2018-06-15T21:19:18.018Z,6.13
2018-06-15T21:21:46.449Z,6.40
2018-06-15T21:24:14.777Z,6.67
2018-06-15T21:26:43.186Z,6.23
2018-06-15T21:29:11.556Z,7.07
2018-06-15T21:31:39.958Z,6.97
2018-06-15T21:34:08.332Z,6.30
2018-06-15T21:36:36.738Z,6.87
2018-06-15T21:39:06.632Z,6.60
2018-06-15T21:41:34.978Z,6.07
2018-06-15T21:44:03.316Z,6.20
2018-06-15T21:46:31.674Z,5.80
2018-06-15T21:49:00.067Z,6.60
2018-06-15T21:51:28.389Z,6.30
2018-06-15T21:53:56.764Z,7.13
2018-06-15T21:56:25.476Z,6.70
2018-06-15T21:58:53.835Z,6.00
2018-06-15T22:01:24.693Z,8.00
2018-06-15T22:03:53.162Z,7.63
2018-06-15T22:06:21.855Z,6.77
2018-06-15T22:08:50.222Z,6.50
2018-06-15T22:11:18.608Z,7.27
2018-06-15T22:13:47.010Z,6.83
2018-06-15T22:16:15.435Z,7.77
2018-06-15T22:18:43.836Z,6.83
2018-06-15T22:21:12.134Z,6.73
2018-06-15T22:23:40.242Z,7.00
2018-06-15T22:26:08.736Z,6.57
2018-06-15T22:28:37.106Z,7.10
2018-06-15T22:31:05.454Z,6.33
2018-06-15T22:33:33.530Z,7.17
2018-06-15T22:36:01.879Z,6.70
2018-06-15T22:38:30.226Z,7.30
2018-06-15T22:40:58.595Z,6.23
2018-06-15T22:43:26.987Z,6.40
2018-06-15T22:45:55.327Z,6.67
2018-06-15T22:48:23.953Z,6.97
2018-06-15T22:50:52.304Z,6.77
2018-06-15T22:53:20.662Z,6.30
2018-06-15T22:55:49.061Z,6.67
2018-06-15T22:58:17.408Z,7.10
2018-06-15T23:00:45.760Z,7.67
2018-06-15T23:03:14.120Z,6.90
2018-06-15T23:05:42.455Z,6.07
2018-06-15T23:08:10.809Z,7.53
2018-06-15T23:10:39.224Z,7.40
2018-06-15T23:13:07.530Z,7.40
2018-06-15T23:15:35.885Z,7.70
2018-06-15T23:18:04.297Z,7.50
2018-06-15T23:20:32.642Z,6.00
2018-06-15T23:23:00.935Z,8.10
2018-06-15T23:25:29.318Z,6.67
2018-06-15T23:27:57.650Z,6.87
2018-06-15T23:30:25.982Z,6.73
2018-06-15T23:32:54.326Z,6.30
2018-06-15T23:35:22.873Z,6.80
2018-06-15T23:37:50.926Z,6.87
2018-06-15T23:40:19.270Z,8.60
2018-06-15T23:42:47.593Z,6.97
2018-06-15T23:45:15.918Z,6.23
2018-06-15T23:47:44.301Z,7.33
2018-06-15T23:50:12.623Z,7.10
2018-06-15T23:52:41.007Z,6.90
2018-06-15T23:55:09.335Z,7.67
2018-06-15T23:57:37.667Z,6.57
